カンクン の空港の天気 - METARとTAF

カンクン国際空港 ( MMUN / CUN ) - メキシコ キンタナ・ロー州カンクン
飛行場実況気象(Metar)
観測時間10/20 11:40 CDT (10/20 16:40 UTC)
風向・風速東南東 7m/s
視程10km以上
天気現象
全天の4割程度の雲 雲底高度 490m
気温30℃
湿度62%
気圧1016hPa
METARMMUN 201640Z 11013KT 7SM SCT016 30/22 A3001 RMK 8/100
過去の天気等 Google飛行場航空写真 Wunderground天気予報

過去48時間のMETAR

飛行場予報(TAF)
発表時間: 10/20 11:23 CDT (10/20 16:23 UTC)
予報対象時間: 20日13時 CDT ~ 21日19時 CDT
風向・風速東南東 6m/s
視程10km以上
全天の8割程度の雲 雲底高度 460m
20日15時 CDT ~ 20日16時 CDT に徐々に
風向・風速東南東 8m/s
20日21時 CDT から
風向・風速北東 4m/s
視程10km以上
全天の4割程度の雲 雲底高度 460m
全天の8割程度の雲 雲底高度 7620m
21日0時 CDT から
風向・風速北東 4m/s
視程10km以上
全天の8割程度の積乱雲 雲底高度 460m
全天の8割程度の雲 雲底高度 2440m
21日0時 CDT から 確率 40% で
視程8050m
天気現象雷雨
21日5時 CDT から
風向・風速東北東 3m/s
視程10km以上
全天の4割程度の雲 雲底高度 460m
全天の8割程度の雲 雲底高度 2440m
21日6時 CDT から 確率 40% で
視程8050m
天気現象弱い雨
TAF MMUN 201623Z 2018/2124 12012KT P6SM BKN015 TX31/2021Z TN27/2112Z
BECMG 2020/2021 12015KT
FM210200 05008KT P6SM SCT015 BKN250
FM210500 04008KT P6SM BKN015CB BKN080
PROB40 2105/2109 5SM TSRA
FM211000 07006KT P6SM SCT015 BKN080
PROB40 2111/2115 5SM -RA F CHECK TEXT NEW ENDING ADDED KATLYTAA